sensor_id;sensor_type;location;lat;lon;timestamp;P1;durP1;ratioP1;P2;durP2;ratioP2
38083;SDS011;23894;51.466;7.444;2023-04-03T00:00:13;11.88;;;8.75;;
38083;SDS011;23894;51.466;7.444;2023-04-03T00:02:15;10.27;;;8.50;;
38083;SDS011;23894;51.466;7.444;2023-04-03T00:04:18;10.85;;;8.00;;
38083;SDS011;23894;51.466;7.444;2023-04-03T00:06:21;12.10;;;8.18;;
38083;SDS011;23894;51.466;7.444;2023-04-03T00:08:22;10.27;;;8.07;;
38083;SDS011;23894;51.466;7.444;2023-04-03T00:10:25;11.50;;;7.97;;
38083;SDS011;23894;51.466;7.444;2023-04-03T00:12:27;10.40;;;7.67;;
38083;SDS011;23894;51.466;7.444;2023-04-03T00:14:30;10.80;;;8.15;;
38083;SDS011;23894;51.466;7.444;2023-04-03T00:16:32;11.25;;;8.00;;
38083;SDS011;23894;51.466;7.444;2023-04-03T00:18:38;10.37;;;8.17;;
38083;SDS011;23894;51.466;7.444;2023-04-03T00:20:39;11.27;;;8.52;;
38083;SDS011;23894;51.466;7.444;2023-04-03T00:22:41;12.63;;;8.82;;
38083;SDS011;23894;51.466;7.444;2023-04-03T00:24:44;11.07;;;8.50;;
38083;SDS011;23894;51.466;7.444;2023-04-03T00:26:47;11.37;;;8.23;;
38083;SDS011;23894;51.466;7.444;2023-04-03T00:28:49;11.35;;;8.05;;
38083;SDS011;23894;51.466;7.444;2023-04-03T00:30:51;9.88;;;7.95;;
38083;SDS011;23894;51.466;7.444;2023-04-03T00:32:54;10.90;;;7.80;;
38083;SDS011;23894;51.466;7.444;2023-04-03T00:34:57;9.52;;;7.55;;
38083;SDS011;23894;51.466;7.444;2023-04-03T00:36:58;9.25;;;7.70;;
38083;SDS011;23894;51.466;7.444;2023-04-03T00:39:01;9.20;;;7.57;;
38083;SDS011;23894;51.466;7.444;2023-04-03T00:41:03;9.73;;;7.15;;
38083;SDS011;23894;51.466;7.444;2023-04-03T00:43:14;11.10;;;7.95;;
38083;SDS011;23894;51.466;7.444;2023-04-03T00:45:23;9.10;;;7.20;;
38083;SDS011;23894;51.466;7.444;2023-04-03T00:47:24;9.43;;;7.53;;
38083;SDS011;23894;51.466;7.444;2023-04-03T00:49:28;9.25;;;7.15;;
38083;SDS011;23894;51.466;7.444;2023-04-03T00:51:30;9.90;;;7.25;;
38083;SDS011;23894;51.466;7.444;2023-04-03T00:53:39;10.20;;;7.60;;
38083;SDS011;23894;51.466;7.444;2023-04-03T00:55:59;9.23;;;7.75;;
38083;SDS011;23894;51.466;7.444;2023-04-03T00:58:02;9.87;;;7.33;;
38083;SDS011;23894;51.466;7.444;2023-04-03T01:00:05;10.55;;;7.45;;
38083;SDS011;23894;51.466;7.444;2023-04-03T01:02:09;9.03;;;7.27;;
38083;SDS011;23894;51.466;7.444;2023-04-03T01:06:33;9.50;;;6.75;;
38083;SDS011;23894;51.466;7.444;2023-04-03T01:08:37;10.10;;;7.05;;
38083;SDS011;23894;51.466;7.444;2023-04-03T01:10:58;9.60;;;7.37;;
38083;SDS011;23894;51.466;7.444;2023-04-03T01:13:27;8.90;;;7.00;;
38083;SDS011;23894;51.466;7.444;2023-04-03T01:15:28;8.85;;;7.07;;
38083;SDS011;23894;51.466;7.444;2023-04-03T01:17:41;9.13;;;7.10;;
38083;SDS011;23894;51.466;7.444;2023-04-03T01:19:45;9.85;;;6.85;;
38083;SDS011;23894;51.466;7.444;2023-04-03T01:22:15;9.75;;;6.93;;
38083;SDS011;23894;51.466;7.444;2023-04-03T01:26:23;9.18;;;7.05;;
38083;SDS011;23894;51.466;7.444;2023-04-03T01:28:32;10.75;;;7.30;;
38083;SDS011;23894;51.466;7.444;2023-04-03T01:30:36;10.70;;;7.22;;
38083;SDS011;23894;51.466;7.444;2023-04-03T01:32:40;9.52;;;7.00;;
38083;SDS011;23894;51.466;7.444;2023-04-03T01:34:43;9.55;;;6.95;;
38083;SDS011;23894;51.466;7.444;2023-04-03T01:36:50;10.32;;;7.40;;
38083;SDS011;23894;51.466;7.444;2023-04-03T01:38:53;9.93;;;7.25;;
38083;SDS011;23894;51.466;7.444;2023-04-03T01:40:56;10.93;;;7.20;;
38083;SDS011;23894;51.466;7.444;2023-04-03T01:42:58;9.93;;;6.75;;
38083;SDS011;23894;51.466;7.444;2023-04-03T01:45:01;11.05;;;7.65;;
38083;SDS011;23894;51.466;7.444;2023-04-03T01:47:05;9.27;;;7.07;;
38083;SDS011;23894;51.466;7.444;2023-04-03T01:49:07;9.73;;;7.50;;
38083;SDS011;23894;51.466;7.444;2023-04-03T01:51:10;9.60;;;7.68;;
38083;SDS011;23894;51.466;7.444;2023-04-03T01:53:12;9.50;;;6.90;;
38083;SDS011;23894;51.466;7.444;2023-04-03T01:55:13;9.80;;;7.20;;
38083;SDS011;23894;51.466;7.444;2023-04-03T01:57:16;8.80;;;7.00;;
38083;SDS011;23894;51.466;7.444;2023-04-03T01:59:18;9.88;;;7.00;;
38083;SDS011;23894;51.466;7.444;2023-04-03T02:01:21;9.07;;;6.70;;
38083;SDS011;23894;51.466;7.444;2023-04-03T02:03:24;9.43;;;7.05;;
38083;SDS011;23894;51.466;7.444;2023-04-03T02:05:27;10.30;;;7.00;;
38083;SDS011;23894;51.466;7.444;2023-04-03T02:07:31;10.75;;;6.82;;
38083;SDS011;23894;51.466;7.444;2023-04-03T02:09:34;8.63;;;6.28;;
38083;SDS011;23894;51.466;7.444;2023-04-03T02:11:38;8.63;;;6.93;;
38083;SDS011;23894;51.466;7.444;2023-04-03T02:13:41;9.63;;;6.63;;
38083;SDS011;23894;51.466;7.444;2023-04-03T02:15:43;9.10;;;6.78;;
38083;SDS011;23894;51.466;7.444;2023-04-03T02:17:45;8.60;;;6.53;;
38083;SDS011;23894;51.466;7.444;2023-04-03T02:19:46;8.80;;;6.05;;
38083;SDS011;23894;51.466;7.444;2023-04-03T02:21:50;9.93;;;6.28;;
38083;SDS011;23894;51.466;7.444;2023-04-03T02:23:56;9.88;;;5.93;;
38083;SDS011;23894;51.466;7.444;2023-04-03T02:26:07;8.80;;;5.80;;
38083;SDS011;23894;51.466;7.444;2023-04-03T02:28:11;8.45;;;5.43;;
38083;SDS011;23894;51.466;7.444;2023-04-03T02:30:12;9.98;;;5.20;;
38083;SDS011;23894;51.466;7.444;2023-04-03T02:32:14;9.75;;;5.18;;
38083;SDS011;23894;51.466;7.444;2023-04-03T02:34:18;8.90;;;4.65;;
38083;SDS011;23894;51.466;7.444;2023-04-03T02:36:20;9.00;;;4.90;;
38083;SDS011;23894;51.466;7.444;2023-04-03T02:38:22;8.73;;;5.03;;
38083;SDS011;23894;51.466;7.444;2023-04-03T02:40:24;8.00;;;5.03;;
38083;SDS011;23894;51.466;7.444;2023-04-03T02:42:26;8.27;;;4.83;;
38083;SDS011;23894;51.466;7.444;2023-04-03T02:44:30;8.57;;;5.03;;
38083;SDS011;23894;51.466;7.444;2023-04-03T02:46:33;7.80;;;5.00;;
38083;SDS011;23894;51.466;7.444;2023-04-03T02:48:36;7.63;;;4.82;;
38083;SDS011;23894;51.466;7.444;2023-04-03T02:50:38;8.30;;;4.90;;
38083;SDS011;23894;51.466;7.444;2023-04-03T02:52:40;8.38;;;4.57;;
38083;SDS011;23894;51.466;7.444;2023-04-03T02:54:43;8.73;;;4.50;;
38083;SDS011;23894;51.466;7.444;2023-04-03T02:56:46;10.15;;;4.80;;
38083;SDS011;23894;51.466;7.444;2023-04-03T02:58:48;8.52;;;4.47;;
38083;SDS011;23894;51.466;7.444;2023-04-03T03:00:50;7.93;;;4.38;;
38083;SDS011;23894;51.466;7.444;2023-04-03T03:02:51;7.65;;;4.50;;
38083;SDS011;23894;51.466;7.444;2023-04-03T03:04:54;7.63;;;4.45;;
38083;SDS011;23894;51.466;7.444;2023-04-03T03:06:58;8.35;;;4.43;;
38083;SDS011;23894;51.466;7.444;2023-04-03T03:08:59;7.63;;;4.05;;
38083;SDS011;23894;51.466;7.444;2023-04-03T03:11:01;7.95;;;4.32;;
38083;SDS011;23894;51.466;7.444;2023-04-03T03:13:06;7.13;;;4.07;;
38083;SDS011;23894;51.466;7.444;2023-04-03T03:15:07;7.82;;;4.25;;
38083;SDS011;23894;51.466;7.444;2023-04-03T03:17:09;7.53;;;4.00;;
38083;SDS011;23894;51.466;7.444;2023-04-03T03:19:12;8.63;;;3.88;;
38083;SDS011;23894;51.466;7.444;2023-04-03T03:21:13;8.70;;;4.00;;
38083;SDS011;23894;51.466;7.444;2023-04-03T03:23:15;8.83;;;4.30;;
38083;SDS011;23894;51.466;7.444;2023-04-03T03:25:17;9.70;;;4.43;;
38083;SDS011;23894;51.466;7.444;2023-04-03T03:27:20;9.35;;;4.20;;
38083;SDS011;23894;51.466;7.444;2023-04-03T03:29:22;8.45;;;4.15;;
38083;SDS011;23894;51.466;7.444;2023-04-03T03:31:26;7.72;;;3.88;;
38083;SDS011;23894;51.466;7.444;2023-04-03T03:33:30;8.95;;;4.18;;
38083;SDS011;23894;51.466;7.444;2023-04-03T03:35:32;6.97;;;3.63;;
38083;SDS011;23894;51.466;7.444;2023-04-03T03:37:36;9.65;;;4.65;;
38083;SDS011;23894;51.466;7.444;2023-04-03T03:39:37;9.20;;;4.45;;
38083;SDS011;23894;51.466;7.444;2023-04-03T03:41:39;7.15;;;3.85;;
38083;SDS011;23894;51.466;7.444;2023-04-03T03:43:42;8.25;;;4.18;;
38083;SDS011;23894;51.466;7.444;2023-04-03T03:45:44;8.70;;;4.25;;
38083;SDS011;23894;51.466;7.444;2023-04-03T03:47:47;6.97;;;4.00;;
38083;SDS011;23894;51.466;7.444;2023-04-03T03:49:50;10.65;;;4.28;;
38083;SDS011;23894;51.466;7.444;2023-04-03T03:51:51;9.10;;;3.97;;
38083;SDS011;23894;51.466;7.444;2023-04-03T03:53:53;9.65;;;4.20;;
38083;SDS011;23894;51.466;7.444;2023-04-03T03:55:55;9.70;;;4.00;;
38083;SDS011;23894;51.466;7.444;2023-04-03T03:57:59;8.77;;;3.83;;
38083;SDS011;23894;51.466;7.444;2023-04-03T04:00:01;9.48;;;4.20;;
38083;SDS011;23894;51.466;7.444;2023-04-03T04:02:05;9.43;;;4.18;;
38083;SDS011;23894;51.466;7.444;2023-04-03T04:04:07;9.20;;;3.90;;
38083;SDS011;23894;51.466;7.444;2023-04-03T04:06:09;10.23;;;4.18;;
38083;SDS011;23894;51.466;7.444;2023-04-03T04:08:11;9.75;;;4.32;;
38083;SDS011;23894;51.466;7.444;2023-04-03T04:10:14;8.63;;;4.10;;
38083;SDS011;23894;51.466;7.444;2023-04-03T04:12:21;10.88;;;4.35;;
38083;SDS011;23894;51.466;7.444;2023-04-03T04:14:24;9.88;;;4.10;;
38083;SDS011;23894;51.466;7.444;2023-04-03T04:16:26;8.82;;;4.07;;
38083;SDS011;23894;51.466;7.444;2023-04-03T04:18:30;10.00;;;4.13;;
38083;SDS011;23894;51.466;7.444;2023-04-03T04:20:31;7.70;;;4.00;;
38083;SDS011;23894;51.466;7.444;2023-04-03T04:22:32;11.73;;;4.70;;
38083;SDS011;23894;51.466;7.444;2023-04-03T04:24:34;9.50;;;4.20;;
38083;SDS011;23894;51.466;7.444;2023-04-03T04:26:35;9.48;;;4.30;;
38083;SDS011;23894;51.466;7.444;2023-04-03T04:28:38;10.18;;;4.35;;
38083;SDS011;23894;51.466;7.444;2023-04-03T04:30:41;10.60;;;4.25;;
38083;SDS011;23894;51.466;7.444;2023-04-03T04:32:42;9.63;;;4.40;;
38083;SDS011;23894;51.466;7.444;2023-04-03T04:34:43;8.20;;;4.23;;
38083;SDS011;23894;51.466;7.444;2023-04-03T04:36:45;9.00;;;4.15;;
38083;SDS011;23894;51.466;7.444;2023-04-03T04:38:47;8.85;;;4.20;;
38083;SDS011;23894;51.466;7.444;2023-04-03T04:40:53;9.50;;;4.30;;
38083;SDS011;23894;51.466;7.444;2023-04-03T04:42:57;10.18;;;4.25;;
38083;SDS011;23894;51.466;7.444;2023-04-03T04:44:58;9.10;;;4.47;;
38083;SDS011;23894;51.466;7.444;2023-04-03T04:47:00;9.53;;;4.37;;
38083;SDS011;23894;51.466;7.444;2023-04-03T04:49:01;9.95;;;4.30;;
38083;SDS011;23894;51.466;7.444;2023-04-03T04:51:02;9.32;;;4.10;;
38083;SDS011;23894;51.466;7.444;2023-04-03T04:53:05;9.65;;;4.40;;
38083;SDS011;23894;51.466;7.444;2023-04-03T04:55:09;9.93;;;4.37;;
38083;SDS011;23894;51.466;7.444;2023-04-03T04:57:10;7.38;;;4.03;;
38083;SDS011;23894;51.466;7.444;2023-04-03T04:59:12;10.77;;;4.40;;
38083;SDS011;23894;51.466;7.444;2023-04-03T05:01:16;8.95;;;4.50;;
38083;SDS011;23894;51.466;7.444;2023-04-03T05:03:18;8.85;;;4.00;;
38083;SDS011;23894;51.466;7.444;2023-04-03T05:05:21;9.65;;;4.57;;
38083;SDS011;23894;51.466;7.444;2023-04-03T05:07:24;10.18;;;4.25;;
38083;SDS011;23894;51.466;7.444;2023-04-03T05:09:46;10.63;;;4.28;;
38083;SDS011;23894;51.466;7.444;2023-04-03T05:11:50;10.80;;;4.50;;
38083;SDS011;23894;51.466;7.444;2023-04-03T05:13:52;8.15;;;4.05;;
38083;SDS011;23894;51.466;7.444;2023-04-03T05:15:56;8.63;;;4.80;;
38083;SDS011;23894;51.466;7.444;2023-04-03T05:17:57;10.27;;;4.63;;
38083;SDS011;23894;51.466;7.444;2023-04-03T05:19:59;10.88;;;4.80;;
38083;SDS011;23894;51.466;7.444;2023-04-03T05:22:01;10.70;;;4.57;;
38083;SDS011;23894;51.466;7.444;2023-04-03T05:24:02;11.85;;;4.82;;
38083;SDS011;23894;51.466;7.444;2023-04-03T05:26:04;9.93;;;4.10;;
38083;SDS011;23894;51.466;7.444;2023-04-03T05:28:06;11.00;;;4.50;;
38083;SDS011;23894;51.466;7.444;2023-04-03T05:30:13;11.55;;;5.30;;
38083;SDS011;23894;51.466;7.444;2023-04-03T05:32:16;9.60;;;4.57;;
38083;SDS011;23894;51.466;7.444;2023-04-03T05:34:20;11.20;;;4.95;;
38083;SDS011;23894;51.466;7.444;2023-04-03T05:36:24;8.93;;;4.80;;
38083;SDS011;23894;51.466;7.444;2023-04-03T05:38:27;11.82;;;4.38;;
38083;SDS011;23894;51.466;7.444;2023-04-03T05:40:31;10.70;;;4.88;;
38083;SDS011;23894;51.466;7.444;2023-04-03T05:42:34;11.93;;;5.38;;
38083;SDS011;23894;51.466;7.444;2023-04-03T05:44:35;10.18;;;4.80;;
38083;SDS011;23894;51.466;7.444;2023-04-03T05:46:36;10.57;;;5.03;;
38083;SDS011;23894;51.466;7.444;2023-04-03T05:48:38;9.65;;;4.70;;
38083;SDS011;23894;51.466;7.444;2023-04-03T05:50:42;12.98;;;7.10;;
38083;SDS011;23894;51.466;7.444;2023-04-03T05:52:56;9.90;;;5.30;;
38083;SDS011;23894;51.466;7.444;2023-04-03T05:55:00;9.70;;;5.00;;
38083;SDS011;23894;51.466;7.444;2023-04-03T05:57:01;10.77;;;4.70;;
38083;SDS011;23894;51.466;7.444;2023-04-03T05:59:03;10.23;;;4.65;;
38083;SDS011;23894;51.466;7.444;2023-04-03T06:01:08;9.93;;;4.60;;
38083;SDS011;23894;51.466;7.444;2023-04-03T06:03:10;10.30;;;4.40;;
38083;SDS011;23894;51.466;7.444;2023-04-03T06:05:11;10.27;;;4.23;;
38083;SDS011;23894;51.466;7.444;2023-04-03T06:07:15;9.82;;;4.22;;
38083;SDS011;23894;51.466;7.444;2023-04-03T06:09:16;9.50;;;4.60;;
38083;SDS011;23894;51.466;7.444;2023-04-03T06:11:18;9.95;;;4.43;;
38083;SDS011;23894;51.466;7.444;2023-04-03T06:13:20;10.13;;;4.45;;
38083;SDS011;23894;51.466;7.444;2023-04-03T06:15:21;10.55;;;4.28;;
38083;SDS011;23894;51.466;7.444;2023-04-03T06:17:23;9.45;;;4.40;;
38083;SDS011;23894;51.466;7.444;2023-04-03T06:19:27;11.48;;;4.53;;
38083;SDS011;23894;51.466;7.444;2023-04-03T06:21:28;11.50;;;5.15;;
38083;SDS011;23894;51.466;7.444;2023-04-03T06:23:35;9.67;;;4.53;;
38083;SDS011;23894;51.466;7.444;2023-04-03T06:25:39;10.93;;;4.18;;
38083;SDS011;23894;51.466;7.444;2023-04-03T06:27:43;10.43;;;4.55;;
38083;SDS011;23894;51.466;7.444;2023-04-03T06:29:44;11.35;;;4.50;;
38083;SDS011;23894;51.466;7.444;2023-04-03T06:31:45;9.85;;;4.30;;
38083;SDS011;23894;51.466;7.444;2023-04-03T06:33:49;8.30;;;4.07;;
38083;SDS011;23894;51.466;7.444;2023-04-03T06:35:57;9.52;;;4.30;;
38083;SDS011;23894;51.466;7.444;2023-04-03T06:37:59;12.05;;;4.63;;
38083;SDS011;23894;51.466;7.444;2023-04-03T06:40:04;8.77;;;4.20;;
38083;SDS011;23894;51.466;7.444;2023-04-03T06:42:05;9.57;;;4.40;;
38083;SDS011;23894;51.466;7.444;2023-04-03T06:44:07;10.32;;;4.50;;
38083;SDS011;23894;51.466;7.444;2023-04-03T06:46:15;10.70;;;4.30;;
38083;SDS011;23894;51.466;7.444;2023-04-03T06:48:19;10.55;;;4.10;;
38083;SDS011;23894;51.466;7.444;2023-04-03T06:50:22;10.68;;;3.90;;
38083;SDS011;23894;51.466;7.444;2023-04-03T06:52:25;10.38;;;4.32;;
38083;SDS011;23894;51.466;7.444;2023-04-03T06:54:28;10.05;;;4.10;;
38083;SDS011;23894;51.466;7.444;2023-04-03T06:56:30;9.52;;;3.95;;
38083;SDS011;23894;51.466;7.444;2023-04-03T06:58:33;12.37;;;5.90;;
38083;SDS011;23894;51.466;7.444;2023-04-03T07:00:35;12.43;;;5.13;;
38083;SDS011;23894;51.466;7.444;2023-04-03T07:02:38;9.45;;;4.70;;
38083;SDS011;23894;51.466;7.444;2023-04-03T07:04:40;12.15;;;4.63;;
38083;SDS011;23894;51.466;7.444;2023-04-03T07:06:43;8.37;;;4.00;;
38083;SDS011;23894;51.466;7.444;2023-04-03T07:08:46;9.27;;;4.30;;
38083;SDS011;23894;51.466;7.444;2023-04-03T07:10:50;10.43;;;4.55;;
38083;SDS011;23894;51.466;7.444;2023-04-03T07:12:53;9.68;;;4.22;;
38083;SDS011;23894;51.466;7.444;2023-04-03T07:14:55;9.63;;;3.92;;
38083;SDS011;23894;51.466;7.444;2023-04-03T07:16:57;10.07;;;4.07;;
38083;SDS011;23894;51.466;7.444;2023-04-03T07:18:59;8.98;;;4.25;;
38083;SDS011;23894;51.466;7.444;2023-04-03T07:21:01;10.18;;;4.40;;
38083;SDS011;23894;51.466;7.444;2023-04-03T07:23:04;12.37;;;4.70;;
38083;SDS011;23894;51.466;7.444;2023-04-03T07:25:06;10.63;;;4.25;;
38083;SDS011;23894;51.466;7.444;2023-04-03T07:27:08;10.02;;;4.20;;
38083;SDS011;23894;51.466;7.444;2023-04-03T07:29:12;10.65;;;4.03;;
38083;SDS011;23894;51.466;7.444;2023-04-03T07:31:16;9.48;;;4.00;;
38083;SDS011;23894;51.466;7.444;2023-04-03T07:33:21;9.50;;;4.07;;
38083;SDS011;23894;51.466;7.444;2023-04-03T07:35:25;10.45;;;4.32;;
38083;SDS011;23894;51.466;7.444;2023-04-03T07:37:27;9.48;;;3.90;;
38083;SDS011;23894;51.466;7.444;2023-04-03T07:39:29;9.48;;;3.80;;
38083;SDS011;23894;51.466;7.444;2023-04-03T07:41:42;9.20;;;3.88;;
38083;SDS011;23894;51.466;7.444;2023-04-03T07:43:45;11.00;;;3.70;;
38083;SDS011;23894;51.466;7.444;2023-04-03T07:45:51;8.50;;;3.60;;
38083;SDS011;23894;51.466;7.444;2023-04-03T07:47:53;8.18;;;3.22;;
38083;SDS011;23894;51.466;7.444;2023-04-03T07:49:57;9.43;;;4.07;;
38083;SDS011;23894;51.466;7.444;2023-04-03T07:51:58;9.15;;;3.60;;
38083;SDS011;23894;51.466;7.444;2023-04-03T07:54:01;9.80;;;3.60;;
38083;SDS011;23894;51.466;7.444;2023-04-03T07:56:02;10.38;;;3.90;;
38083;SDS011;23894;51.466;7.444;2023-04-03T07:58:03;10.10;;;3.72;;
38083;SDS011;23894;51.466;7.444;2023-04-03T08:00:06;11.05;;;3.50;;
38083;SDS011;23894;51.466;7.444;2023-04-03T08:02:09;9.95;;;3.70;;
38083;SDS011;23894;51.466;7.444;2023-04-03T08:04:11;8.88;;;3.90;;
38083;SDS011;23894;51.466;7.444;2023-04-03T08:06:12;8.25;;;3.83;;
38083;SDS011;23894;51.466;7.444;2023-04-03T08:08:17;8.43;;;3.40;;
38083;SDS011;23894;51.466;7.444;2023-04-03T08:10:20;8.32;;;3.22;;
38083;SDS011;23894;51.466;7.444;2023-04-03T08:12:23;9.02;;;3.50;;
38083;SDS011;23894;51.466;7.444;2023-04-03T08:14:24;10.65;;;3.63;;
38083;SDS011;23894;51.466;7.444;2023-04-03T08:16:26;9.30;;;3.40;;
38083;SDS011;23894;51.466;7.444;2023-04-03T08:18:27;8.75;;;3.38;;
38083;SDS011;23894;51.466;7.444;2023-04-03T08:20:31;7.78;;;3.30;;
38083;SDS011;23894;51.466;7.444;2023-04-03T08:22:33;7.70;;;3.40;;
38083;SDS011;23894;51.466;7.444;2023-04-03T08:24:36;9.07;;;3.58;;
38083;SDS011;23894;51.466;7.444;2023-04-03T08:26:38;9.57;;;3.67;;
38083;SDS011;23894;51.466;7.444;2023-04-03T08:28:39;8.85;;;3.58;;
38083;SDS011;23894;51.466;7.444;2023-04-03T08:30:42;10.73;;;4.00;;
38083;SDS011;23894;51.466;7.444;2023-04-03T08:32:47;9.43;;;3.80;;
38083;SDS011;23894;51.466;7.444;2023-04-03T08:34:51;10.23;;;3.80;;
38083;SDS011;23894;51.466;7.444;2023-04-03T08:36:54;9.30;;;4.22;;
38083;SDS011;23894;51.466;7.444;2023-04-03T08:38:57;10.25;;;3.80;;
38083;SDS011;23894;51.466;7.444;2023-04-03T08:41:04;8.27;;;3.63;;
38083;SDS011;23894;51.466;7.444;2023-04-03T08:43:26;9.60;;;3.33;;
38083;SDS011;23894;51.466;7.444;2023-04-03T08:45:45;9.90;;;3.78;;
38083;SDS011;23894;51.466;7.444;2023-04-03T08:47:56;11.18;;;4.07;;
38083;SDS011;23894;51.466;7.444;2023-04-03T08:50:02;10.60;;;3.73;;
38083;SDS011;23894;51.466;7.444;2023-04-03T08:52:10;8.68;;;3.47;;
38083;SDS011;23894;51.466;7.444;2023-04-03T08:54:18;9.18;;;3.47;;
38083;SDS011;23894;51.466;7.444;2023-04-03T08:56:23;7.78;;;3.38;;
38083;SDS011;23894;51.466;7.444;2023-04-03T08:58:30;6.38;;;2.85;;
38083;SDS011;23894;51.466;7.444;2023-04-03T09:00:37;8.55;;;3.30;;
38083;SDS011;23894;51.466;7.444;2023-04-03T09:02:48;7.25;;;3.20;;
38083;SDS011;23894;51.466;7.444;2023-04-03T09:04:50;8.40;;;3.13;;
38083;SDS011;23894;51.466;7.444;2023-04-03T09:06:56;7.80;;;3.00;;
38083;SDS011;23894;51.466;7.444;2023-04-03T09:09:15;8.50;;;3.20;;
38083;SDS011;23894;51.466;7.444;2023-04-03T09:13:55;9.95;;;3.50;;
38083;SDS011;23894;51.466;7.444;2023-04-03T09:16:01;9.15;;;2.88;;
38083;SDS011;23894;51.466;7.444;2023-04-03T09:18:13;10.10;;;3.42;;
38083;SDS011;23894;51.466;7.444;2023-04-03T09:20:33;9.15;;;3.17;;
38083;SDS011;23894;51.466;7.444;2023-04-03T09:22:49;8.55;;;2.95;;
38083;SDS011;23894;51.466;7.444;2023-04-03T09:25:28;8.73;;;2.85;;
38083;SDS011;23894;51.466;7.444;2023-04-03T09:27:22;8.97;;;3.10;;
38083;SDS011;23894;51.466;7.444;2023-04-03T09:29:26;7.63;;;3.15;;
38083;SDS011;23894;51.466;7.444;2023-04-03T09:31:29;8.68;;;2.92;;
38083;SDS011;23894;51.466;7.444;2023-04-03T09:33:31;7.60;;;3.28;;
38083;SDS011;23894;51.466;7.444;2023-04-03T09:35:33;6.72;;;2.97;;
38083;SDS011;23894;51.466;7.444;2023-04-03T09:37:49;8.57;;;3.00;;
38083;SDS011;23894;51.466;7.444;2023-04-03T09:39:55;7.70;;;2.97;;
38083;SDS011;23894;51.466;7.444;2023-04-03T09:42:00;8.13;;;3.00;;
38083;SDS011;23894;51.466;7.444;2023-04-03T09:44:04;8.15;;;3.38;;
38083;SDS011;23894;51.466;7.444;2023-04-03T09:46:24;8.60;;;3.20;;
38083;SDS011;23894;51.466;7.444;2023-04-03T09:48:27;6.80;;;3.00;;
38083;SDS011;23894;51.466;7.444;2023-04-03T09:50:28;8.63;;;2.92;;
38083;SDS011;23894;51.466;7.444;2023-04-03T09:52:31;7.13;;;2.80;;
38083;SDS011;23894;51.466;7.444;2023-04-03T09:54:38;6.88;;;2.67;;
38083;SDS011;23894;51.466;7.444;2023-04-03T09:56:40;7.13;;;2.90;;
38083;SDS011;23894;51.466;7.444;2023-04-03T09:58:45;8.65;;;3.05;;
38083;SDS011;23894;51.466;7.444;2023-04-03T10:00:53;7.93;;;2.85;;
38083;SDS011;23894;51.466;7.444;2023-04-03T10:02:56;6.75;;;3.00;;
38083;SDS011;23894;51.466;7.444;2023-04-03T10:04:57;8.77;;;2.97;;
38083;SDS011;23894;51.466;7.444;2023-04-03T10:07:01;8.18;;;3.15;;
38083;SDS011;23894;51.466;7.444;2023-04-03T10:09:05;7.60;;;3.20;;
38083;SDS011;23894;51.466;7.444;2023-04-03T10:11:13;7.72;;;2.90;;
38083;SDS011;23894;51.466;7.444;2023-04-03T10:13:17;7.45;;;2.92;;
38083;SDS011;23894;51.466;7.444;2023-04-03T10:15:33;6.88;;;2.42;;
38083;SDS011;23894;51.466;7.444;2023-04-03T10:20:05;6.43;;;2.60;;
38083;SDS011;23894;51.466;7.444;2023-04-03T10:22:40;8.60;;;2.50;;
38083;SDS011;23894;51.466;7.444;2023-04-03T10:25:04;7.15;;;2.28;;
38083;SDS011;23894;51.466;7.444;2023-04-03T10:27:17;6.53;;;2.40;;
38083;SDS011;23894;51.466;7.444;2023-04-03T10:29:39;6.38;;;2.60;;
38083;SDS011;23894;51.466;7.444;2023-04-03T10:36:19;7.68;;;2.85;;
38083;SDS011;23894;51.466;7.444;2023-04-03T10:40:57;10.90;;;3.40;;
38083;SDS011;23894;51.466;7.444;2023-04-03T10:43:22;5.03;;;2.08;;
38083;SDS011;23894;51.466;7.444;2023-04-03T10:45:44;6.50;;;2.28;;
38083;SDS011;23894;51.466;7.444;2023-04-03T10:52:38;5.22;;;2.00;;
38083;SDS011;23894;51.466;7.444;2023-04-03T10:55:09;6.07;;;1.98;;
38083;SDS011;23894;51.466;7.444;2023-04-03T10:57:10;4.72;;;1.60;;
38083;SDS011;23894;51.466;7.444;2023-04-03T10:59:15;4.32;;;1.65;;
38083;SDS011;23894;51.466;7.444;2023-04-03T11:01:22;5.28;;;1.80;;
38083;SDS011;23894;51.466;7.444;2023-04-03T11:03:43;6.10;;;2.03;;
38083;SDS011;23894;51.466;7.444;2023-04-03T11:05:47;7.22;;;2.30;;
38083;SDS011;23894;51.466;7.444;2023-04-03T11:07:51;5.57;;;1.90;;
38083;SDS011;23894;51.466;7.444;2023-04-03T11:10:02;5.40;;;2.03;;
38083;SDS011;23894;51.466;7.444;2023-04-03T11:14:30;5.80;;;2.20;;
38083;SDS011;23894;51.466;7.444;2023-04-03T11:16:43;7.38;;;2.10;;
38083;SDS011;23894;51.466;7.444;2023-04-03T11:18:54;6.05;;;2.17;;
38083;SDS011;23894;51.466;7.444;2023-04-03T11:21:02;6.53;;;2.00;;
38083;SDS011;23894;51.466;7.444;2023-04-03T11:25:29;6.50;;;2.10;;
38083;SDS011;23894;51.466;7.444;2023-04-03T11:27:38;5.00;;;1.90;;
38083;SDS011;23894;51.466;7.444;2023-04-03T11:29:42;6.22;;;2.00;;
38083;SDS011;23894;51.466;7.444;2023-04-03T11:32:06;6.47;;;2.00;;
38083;SDS011;23894;51.466;7.444;2023-04-03T11:34:19;6.55;;;1.70;;
38083;SDS011;23894;51.466;7.444;2023-04-03T11:36:27;5.00;;;1.70;;
38083;SDS011;23894;51.466;7.444;2023-04-03T11:38:31;7.07;;;1.95;;
38083;SDS011;23894;51.466;7.444;2023-04-03T11:40:46;5.15;;;1.75;;
38083;SDS011;23894;51.466;7.444;2023-04-03T11:42:48;5.95;;;1.77;;
38083;SDS011;23894;51.466;7.444;2023-04-03T11:45:16;5.63;;;1.90;;
38083;SDS011;23894;51.466;7.444;2023-04-03T11:47:43;5.35;;;2.05;;
38083;SDS011;23894;51.466;7.444;2023-04-03T11:49:50;5.60;;;1.70;;
38083;SDS011;23894;51.466;7.444;2023-04-03T11:51:54;6.35;;;1.90;;
38083;SDS011;23894;51.466;7.444;2023-04-03T11:54:15;5.85;;;2.08;;
38083;SDS011;23894;51.466;7.444;2023-04-03T11:56:28;6.00;;;2.50;;
38083;SDS011;23894;51.466;7.444;2023-04-03T11:58:41;5.68;;;2.40;;
38083;SDS011;23894;51.466;7.444;2023-04-03T12:01:11;5.93;;;1.75;;
38083;SDS011;23894;51.466;7.444;2023-04-03T12:05:41;5.05;;;1.70;;
38083;SDS011;23894;51.466;7.444;2023-04-03T12:07:44;5.60;;;1.90;;
38083;SDS011;23894;51.466;7.444;2023-04-03T12:10:15;4.47;;;1.80;;
38083;SDS011;23894;51.466;7.444;2023-04-03T12:12:24;5.13;;;1.80;;
38083;SDS011;23894;51.466;7.444;2023-04-03T12:14:37;5.43;;;1.90;;
38083;SDS011;23894;51.466;7.444;2023-04-03T12:16:46;5.82;;;1.80;;
38083;SDS011;23894;51.466;7.444;2023-04-03T12:21:20;4.70;;;1.65;;
38083;SDS011;23894;51.466;7.444;2023-04-03T12:26:22;5.18;;;1.60;;
38083;SDS011;23894;51.466;7.444;2023-04-03T12:28:26;4.97;;;1.57;;
38083;SDS011;23894;51.466;7.444;2023-04-03T12:30:29;7.72;;;1.70;;
38083;SDS011;23894;51.466;7.444;2023-04-03T12:37:09;5.00;;;1.50;;
38083;SDS011;23894;51.466;7.444;2023-04-03T12:39:55;5.25;;;1.70;;
38083;SDS011;23894;51.466;7.444;2023-04-03T12:47:01;4.55;;;1.42;;
38083;SDS011;23894;51.466;7.444;2023-04-03T12:51:40;5.95;;;1.75;;
38083;SDS011;23894;51.466;7.444;2023-04-03T12:53:44;5.43;;;1.43;;
38083;SDS011;23894;51.466;7.444;2023-04-03T12:55:47;4.70;;;1.57;;
38083;SDS011;23894;51.466;7.444;2023-04-03T12:57:56;4.70;;;1.52;;
38083;SDS011;23894;51.466;7.444;2023-04-03T13:00:21;5.32;;;1.52;;
38083;SDS011;23894;51.466;7.444;2023-04-03T13:02:36;5.38;;;1.60;;
38083;SDS011;23894;51.466;7.444;2023-04-03T13:04:38;5.13;;;1.50;;
38083;SDS011;23894;51.466;7.444;2023-04-03T13:06:39;5.53;;;1.60;;
38083;SDS011;23894;51.466;7.444;2023-04-03T13:08:53;6.07;;;1.70;;
38083;SDS011;23894;51.466;7.444;2023-04-03T13:10:59;4.45;;;1.30;;
38083;SDS011;23894;51.466;7.444;2023-04-03T13:13:09;5.57;;;1.55;;
38083;SDS011;23894;51.466;7.444;2023-04-03T13:17:32;6.13;;;1.40;;
38083;SDS011;23894;51.466;7.444;2023-04-03T13:19:38;5.40;;;1.70;;